createdAt,value
2022-10-17T00:01:13.994Z,11.3
2022-10-17T00:03:11.559Z,11
2022-10-17T00:05:09.186Z,11.2
2022-10-17T00:07:14.753Z,11.2
2022-10-17T00:09:12.417Z,10.9
2022-10-17T00:11:10.035Z,11.7
2022-10-17T00:13:07.644Z,12
2022-10-17T00:19:00.568Z,11.5
2022-10-17T00:21:06.120Z,11.3
2022-10-17T00:23:03.755Z,11.3
2022-10-17T00:25:01.364Z,13.9
2022-10-17T00:26:58.992Z,15.2
2022-10-17T00:30:54.279Z,12.8
2022-10-17T00:34:57.413Z,13.5
2022-10-17T00:36:55.055Z,12.3
2022-10-17T00:40:50.339Z,11.3
2022-10-17T00:42:47.938Z,11.7
2022-10-17T00:44:45.571Z,12.6
2022-10-17T00:46:43.205Z,14.1
2022-10-17T00:48:48.721Z,14
2022-10-17T00:50:46.377Z,14.7
2022-10-17T00:52:43.999Z,13.1
2022-10-17T00:55:01.589Z,-1
2022-10-17T00:57:04.319Z,12.4
2022-10-17T00:59:02.003Z,12.1
2022-10-17T01:01:07.533Z,14.4
2022-10-17T01:03:05.153Z,13.7
2022-10-17T01:05:02.819Z,14
2022-10-17T01:07:00.447Z,11.9
2022-10-17T01:10:55.715Z,14.1
2022-10-17T01:12:53.343Z,14.7
2022-10-17T01:16:56.545Z,13.8
2022-10-17T01:18:54.171Z,13.4
2022-10-17T01:20:51.811Z,16
2022-10-17T01:22:49.441Z,14.8
2022-10-17T01:24:47.081Z,16.6
2022-10-17T01:26:44.717Z,16.5
2022-10-17T01:28:50.280Z,16.3
2022-10-17T01:30:47.927Z,15.2
2022-10-17T01:34:43.192Z,15.5
2022-10-17T01:36:40.814Z,15.3
2022-10-17T01:40:36.323Z,14.8
2022-10-17T01:46:36.946Z,15.6
2022-10-17T01:47:39.720Z,15.5
2022-10-17T01:49:37.338Z,17.1
2022-10-17T01:51:34.984Z,15.1
2022-10-17T01:53:32.637Z,17.5
2022-10-17T01:57:35.808Z,15
2022-10-17T01:59:33.450Z,15
2022-10-17T02:01:31.164Z,15.1
2022-10-17T02:03:28.736Z,14.8
2022-10-17T02:05:26.366Z,15.6
2022-10-17T02:07:24.006Z,17.7
2022-10-17T02:09:29.583Z,16.3
2022-10-17T02:11:28.787Z,15.3
2022-10-17T02:13:26.376Z,16
2022-10-17T02:15:24.015Z,16.2
2022-10-17T02:17:21.640Z,16.3
2022-10-17T02:19:19.287Z,17.3
2022-10-17T02:21:16.917Z,15.5
2022-10-17T02:23:22.459Z,16.8
2022-10-17T02:25:20.125Z,18.2
2022-10-17T02:27:17.748Z,18.3
2022-10-17T02:29:15.361Z,16.7
2022-10-17T02:31:12.990Z,15.6
2022-10-17T02:33:10.593Z,15.9
2022-10-17T02:35:08.252Z,15.8
2022-10-17T02:37:13.790Z,16.8
2022-10-17T02:39:11.423Z,16.2
2022-10-17T02:42:11.874Z,14.9
2022-10-17T02:44:09.468Z,18.7
2022-10-17T02:46:07.124Z,15.4
2022-10-17T02:48:04.761Z,20
2022-10-17T02:50:10.300Z,15.9
2022-10-17T02:54:05.572Z,17.7
2022-10-17T02:56:03.243Z,15.6
2022-10-17T02:58:00.866Z,17.6
2022-10-17T02:59:58.503Z,16.3
2022-10-17T03:01:56.127Z,15.3
2022-10-17T03:04:01.695Z,18.7
2022-10-17T03:05:59.328Z,16.3
2022-10-17T03:09:54.610Z,17.5
2022-10-17T03:11:52.238Z,16.4
2022-10-17T03:13:49.830Z,16.3
2022-10-17T03:15:47.458Z,15.7
2022-10-17T03:19:50.667Z,17.1
2022-10-17T03:21:48.292Z,16.1
2022-10-17T03:23:45.969Z,20.6
2022-10-17T03:25:43.536Z,20.4
2022-10-17T03:27:41.175Z,18.9
2022-10-17T03:29:38.813Z,19.1
2022-10-17T03:31:44.417Z,18.3
2022-10-17T03:33:42.020Z,19
2022-10-17T03:35:39.770Z,21
2022-10-17T03:36:42.450Z,18.3
2022-10-17T03:38:40.081Z,19.8
2022-10-17T03:40:37.707Z,19.8
2022-10-17T03:46:38.509Z,17.1
2022-10-17T03:48:36.110Z,17.8
2022-10-17T03:50:33.769Z,16.9
2022-10-17T03:54:29.010Z,17.6
2022-10-17T03:56:26.649Z,18.7
2022-10-17T03:58:32.237Z,19.4
2022-10-17T04:00:29.886Z,21.5
2022-10-17T04:02:27.497Z,16
2022-10-17T04:04:25.122Z,18.1
2022-10-17T04:06:22.762Z,18.4
2022-10-17T04:08:20.399Z,18.3
2022-10-17T04:10:18.030Z,18.4
2022-10-17T04:12:23.567Z,19.6
2022-10-17T04:14:21.207Z,17.2
2022-10-17T04:16:18.838Z,19.6
2022-10-17T04:22:11.706Z,20.5
2022-10-17T04:26:14.921Z,21.4
2022-10-17T04:28:12.575Z,21.6
2022-10-17T04:30:10.193Z,20.1
2022-10-17T04:32:37.202Z,18.7
2022-10-17T04:36:32.523Z,21.4
2022-10-17T04:38:38.073Z,21.7
2022-10-17T04:40:35.719Z,18.2
2022-10-17T04:44:31.000Z,18.1
2022-10-17T04:46:28.627Z,18.2
2022-10-17T04:48:26.268Z,21.2
2022-10-17T04:50:23.887Z,22.1
2022-10-17T04:52:29.789Z,20.1
2022-10-17T04:54:27.089Z,20.7
2022-10-17T04:56:24.707Z,18.6
2022-10-17T04:58:22.340Z,18.5
2022-10-17T05:00:19.978Z,19.1
2022-10-17T05:02:17.637Z,17.2
2022-10-17T05:04:15.254Z,19.9
2022-10-17T05:06:20.828Z,16.7
2022-10-17T05:08:18.437Z,16.6
2022-10-17T05:12:13.680Z,20.1
2022-10-17T05:16:08.960Z,15.9
2022-10-17T05:18:06.579Z,16.1
2022-10-17T05:20:12.150Z,17.1
2022-10-17T05:22:09.751Z,15.9
2022-10-17T05:24:07.383Z,16.1
2022-10-17T05:25:10.149Z,15.7
2022-10-17T05:27:07.779Z,16.6
2022-10-17T05:29:05.532Z,15.2
2022-10-17T05:31:03.028Z,17.3
2022-10-17T05:33:08.551Z,17.9
2022-10-17T05:37:03.814Z,14.2
2022-10-17T05:39:01.448Z,17.3
2022-10-17T05:40:59.088Z,17.2
2022-10-17T05:46:59.862Z,20.5
2022-10-17T05:50:55.115Z,17
2022-10-17T05:54:50.362Z,14.4
2022-10-17T05:56:47.999Z,15.8
2022-10-17T06:00:51.142Z,16.1
2022-10-17T06:02:48.768Z,14.2
2022-10-17T06:04:46.372Z,12.7
2022-10-17T06:06:44.070Z,14.5
2022-10-17T06:08:41.633Z,14.3
2022-10-17T06:10:39.253Z,15.4
2022-10-17T06:14:42.461Z,16
2022-10-17T06:16:40.095Z,14.4
2022-10-17T06:18:37.754Z,13
2022-10-17T06:19:40.445Z,14
2022-10-17T06:21:38.042Z,13.3
2022-10-17T06:25:33.301Z,12
2022-10-17T06:27:38.820Z,12.1
2022-10-17T06:31:34.093Z,12.5
2022-10-17T06:33:31.692Z,13.3
2022-10-17T06:35:29.320Z,13.8
2022-10-17T06:37:28.367Z,13.4
2022-10-17T06:39:24.543Z,13.8
2022-10-17T06:41:30.096Z,13.1
2022-10-17T06:43:28.062Z,15.6
2022-10-17T06:45:25.355Z,12.9
2022-10-17T06:47:22.970Z,13
2022-10-17T06:49:20.587Z,11.3
2022-10-17T06:51:18.222Z,11.4
2022-10-17T06:53:15.897Z,12.1
2022-10-17T06:55:23.114Z,12.9
2022-10-17T06:57:19.025Z,11.9
2022-10-17T06:59:16.656Z,11.6
2022-10-17T07:01:14.255Z,12.2
2022-10-17T07:03:11.873Z,15.2
2022-10-17T07:05:09.521Z,12.5
2022-10-17T07:07:07.168Z,12.3
2022-10-17T07:09:12.677Z,9.9
2022-10-17T07:11:10.290Z,10.3
2022-10-17T07:13:07.919Z,12.9
2022-10-17T07:16:08.294Z,10.3
2022-10-17T07:18:05.905Z,11.1
2022-10-17T07:20:03.549Z,11.8
2022-10-17T07:22:09.081Z,11.8
2022-10-17T07:24:06.740Z,10.2
2022-10-17T07:26:04.304Z,12.7
2022-10-17T07:28:01.939Z,13.6
2022-10-17T07:29:59.559Z,11.6
2022-10-17T07:31:57.154Z,9.2
2022-10-17T07:33:54.773Z,11.2
2022-10-17T07:36:00.323Z,11.2
2022-10-17T07:37:57.941Z,9.9
2022-10-17T07:41:53.135Z,10.3
2022-10-17T07:43:50.772Z,9.2
2022-10-17T07:45:48.377Z,11.9
2022-10-17T07:47:45.989Z,10.2
2022-10-17T07:49:51.510Z,13.7
2022-10-17T07:51:49.154Z,10.8
2022-10-17T07:53:48.949Z,10.5
2022-10-17T07:57:43.487Z,9.7
2022-10-17T07:59:41.086Z,7.7
2022-10-17T08:01:38.713Z,9.9
2022-10-17T08:03:44.255Z,9.3
2022-10-17T08:05:41.881Z,9.7
2022-10-17T08:10:06.431Z,8.5
2022-10-17T08:12:04.019Z,10.2
2022-10-17T08:16:07.123Z,9.9
2022-10-17T08:18:04.750Z,10.1
2022-10-17T08:20:02.402Z,8.2
2022-10-17T08:22:00.011Z,8.6
2022-10-17T08:23:57.643Z,7.9
2022-10-17T08:25:55.242Z,8.3
2022-10-17T08:27:52.860Z,8.6
2022-10-17T08:29:58.388Z,7.9
2022-10-17T08:32:00.229Z,7.9
2022-10-17T08:33:53.586Z,8.6
2022-10-17T08:35:51.198Z,11.2
2022-10-17T08:37:48.823Z,9.3
2022-10-17T08:43:49.544Z,10.4
2022-10-17T08:51:39.965Z,10.6
2022-10-17T08:53:37.574Z,9.9
2022-10-17T08:55:35.161Z,12
2022-10-17T08:57:40.693Z,10.6
2022-10-17T08:59:38.317Z,9.9
2022-10-17T09:01:35.944Z,10.6
2022-10-17T09:02:38.866Z,12.6
2022-10-17T09:04:36.318Z,10.6
2022-10-17T09:06:33.934Z,11.5
2022-10-17T09:08:31.550Z,14
2022-10-17T09:10:37.082Z,15.1
2022-10-17T09:12:34.713Z,13.5
2022-10-17T09:14:32.307Z,13.6
2022-10-17T09:16:29.931Z,15
2022-10-17T09:18:27.538Z,13.4
2022-10-17T09:22:22.753Z,13.5
2022-10-17T09:24:28.276Z,13.5
2022-10-17T09:28:23.503Z,15
2022-10-17T09:30:40.091Z,14.8
2022-10-17T09:32:18.679Z,14.3
2022-10-17T09:36:13.905Z,13.7
2022-10-17T09:38:19.450Z,14.9
2022-10-17T09:46:09.917Z,14.5
2022-10-17T09:48:07.503Z,19.7
2022-10-17T09:50:05.145Z,15.2
2022-10-17T09:54:08.281Z,28.4
2022-10-17T09:56:05.891Z,14.9
2022-10-17T09:57:08.704Z,23.7
2022-10-17T09:59:09.289Z,14
2022-10-17T10:01:03.955Z,14
2022-10-17T10:03:01.520Z,17
2022-10-17T10:05:07.504Z,34.9
2022-10-17T10:07:04.668Z,19.2
2022-10-17T10:09:02.293Z,18.4
2022-10-17T10:10:59.907Z,15.3
2022-10-17T10:12:57.524Z,14.6
2022-10-17T10:14:55.476Z,14.4
2022-10-17T10:16:52.752Z,13.7
2022-10-17T10:18:58.290Z,14.5
2022-10-17T10:20:55.867Z,13.3
2022-10-17T10:22:55.917Z,12.1
2022-10-17T10:24:51.093Z,14.8
2022-10-17T10:26:48.699Z,13.9
2022-10-17T10:28:47.375Z,13.7
2022-10-17T10:30:44.926Z,14.6
2022-10-17T10:32:50.455Z,15.9
2022-10-17T10:34:48.077Z,15.5
2022-10-17T10:36:45.694Z,18.7
2022-10-17T10:38:43.321Z,18.6
2022-10-17T10:40:40.909Z,21.6
2022-10-17T10:42:38.518Z,20.5
2022-10-17T10:46:41.675Z,16.3
2022-10-17T10:48:39.273Z,87.8
2022-10-17T10:51:39.667Z,108.1
2022-10-17T10:55:34.903Z,79.8
2022-10-17T10:59:38.071Z,224.3
2022-10-17T11:07:28.867Z,11
2022-10-17T11:09:28.811Z,12.4
2022-10-17T11:11:23.721Z,11.8
2022-10-17T11:13:29.283Z,10.5
2022-10-17T11:15:26.876Z,12.8
2022-10-17T11:17:24.493Z,12.3
2022-10-17T11:19:22.098Z,7.7
2022-10-17T11:21:19.712Z,10
2022-10-17T11:23:17.316Z,9.4
2022-10-17T11:25:14.894Z,7.9
2022-10-17T11:27:20.429Z,8.7
2022-10-17T11:29:18.009Z,8.3
2022-10-17T11:31:15.626Z,9.6
2022-10-17T11:33:13.207Z,10
2022-10-17T11:35:10.804Z,8.2
2022-10-17T11:37:08.404Z,7.2
2022-10-17T11:39:05.988Z,6.6
2022-10-17T11:41:11.499Z,6.2
2022-10-17T11:43:09.106Z,5.1
2022-10-17T11:45:06.704Z,6.1
2022-10-17T11:47:33.578Z,6.9
2022-10-17T11:49:33.005Z,6.6
2022-10-17T11:52:00.386Z,6.1
2022-10-17T11:53:34.285Z,7.8
2022-10-17T11:59:27.105Z,5.9
2022-10-17T12:01:24.715Z,5.5
2022-10-17T12:03:22.308Z,6.6
2022-10-17T12:05:19.932Z,7.9
2022-10-17T12:07:25.535Z,7.7
2022-10-17T12:09:23.108Z,6.2
2022-10-17T12:11:20.698Z,8.2
2022-10-17T12:13:18.294Z,7
2022-10-17T12:15:15.895Z,9.2
2022-10-17T12:17:13.489Z,5.8
2022-10-17T12:19:11.112Z,6.6
2022-10-17T12:21:16.639Z,6.1
2022-10-17T12:23:14.253Z,7.2
2022-10-17T12:25:11.883Z,8.7
2022-10-17T12:27:09.414Z,11.8
2022-10-17T12:29:07.084Z,40.4
2022-10-17T12:31:04.630Z,19.8
2022-10-17T12:33:06.605Z,10.1
2022-10-17T12:35:07.729Z,7
2022-10-17T12:37:05.313Z,6.4
2022-10-17T12:39:02.908Z,5.6
2022-10-17T12:40:05.677Z,7.6
2022-10-17T12:42:03.269Z,7.7
2022-10-17T12:44:00.863Z,4.4
2022-10-17T12:45:58.460Z,7.2
2022-10-17T12:48:03.966Z,6.3
2022-10-17T12:50:01.574Z,5.5
2022-10-17T12:51:59.177Z,5.9
2022-10-17T12:53:56.788Z,6.7
2022-10-17T12:57:51.965Z,5.3
2022-10-17T12:59:49.523Z,5.3
2022-10-17T13:01:55.134Z,6.8
2022-10-17T13:07:47.841Z,5.9
2022-10-17T13:11:43.067Z,4.4
2022-10-17T13:13:40.621Z,7.3
2022-10-17T13:17:43.949Z,6
2022-10-17T13:21:38.973Z,7.7
2022-10-17T13:25:37.588Z,7.9
2022-10-17T13:27:31.730Z,8.3
2022-10-17T13:29:37.243Z,6.8
2022-10-17T13:31:34.814Z,9.3
2022-10-17T13:33:32.419Z,8
2022-10-17T13:36:33.188Z,10
2022-10-17T13:38:30.795Z,8.6
2022-10-17T13:40:44.685Z,9.4
2022-10-17T13:42:34.210Z,10.3
2022-10-17T13:44:31.520Z,9.8
2022-10-17T13:46:37.327Z,10.5
2022-10-17T13:48:26.703Z,9.5
2022-10-17T13:50:42.966Z,9
2022-10-17T13:52:21.884Z,9.6
2022-10-17T13:54:19.473Z,9
2022-10-17T13:56:28.287Z,9.8
2022-10-17T13:58:22.581Z,10.3
2022-10-17T14:00:20.204Z,10.4
2022-10-17T14:02:17.819Z,10.3
2022-10-17T14:04:20.186Z,9.9
2022-10-17T14:06:12.994Z,10.9
2022-10-17T14:08:13.410Z,10.7
2022-10-17T14:10:16.107Z,12.3
2022-10-17T14:12:13.717Z,12.9
2022-10-17T14:14:11.285Z,12.7
2022-10-17T14:16:08.894Z,12.9
2022-10-17T14:18:07.993Z,12.9
2022-10-17T14:20:34.511Z,13.6
2022-10-17T14:22:01.738Z,11.6
2022-10-17T14:24:07.227Z,12.1
2022-10-17T14:26:04.823Z,11.6
2022-10-17T14:28:02.413Z,12.2
2022-10-17T14:33:00.407Z,10.9
2022-10-17T14:35:10.569Z,13
2022-10-17T14:37:03.496Z,10.4
2022-10-17T14:39:01.908Z,11.2
2022-10-17T14:41:09.811Z,11.2
2022-10-17T14:42:56.279Z,9.8
2022-10-17T14:44:53.895Z,11.7
2022-10-17T14:46:51.464Z,11.2
2022-10-17T14:48:49.074Z,9.4
2022-10-17T14:50:54.586Z,10.2
2022-10-17T14:52:52.163Z,8.5
2022-10-17T14:54:49.753Z,8.3
2022-10-17T14:56:47.323Z,9.7
2022-10-17T14:58:44.917Z,8.6
2022-10-17T15:00:42.542Z,7
2022-10-17T15:02:40.120Z,8.7
2022-10-17T15:04:45.637Z,21
2022-10-17T15:08:40.841Z,9.2
2022-10-17T15:10:38.388Z,94.9
2022-10-17T15:12:35.959Z,61.1
2022-10-17T15:14:33.551Z,42
2022-10-17T15:16:31.108Z,12
2022-10-17T15:18:36.642Z,8.1
2022-10-17T15:20:34.203Z,9.4
2022-10-17T15:22:32.216Z,9.5
2022-10-17T15:24:52.572Z,13.6
2022-10-17T15:26:50.188Z,8.8
2022-10-17T15:28:47.786Z,16.2
2022-10-17T15:30:53.313Z,8.8
2022-10-17T15:32:50.867Z,11.7
2022-10-17T15:34:48.456Z,10
2022-10-17T15:36:46.051Z,12.4
2022-10-17T15:38:43.650Z,11.4
2022-10-17T15:40:41.286Z,9.7
2022-10-17T15:42:38.830Z,12.5
2022-10-17T15:44:44.358Z,11.3
2022-10-17T15:46:41.977Z,10.1
2022-10-17T15:48:39.553Z,11.9
2022-10-17T15:50:37.135Z,10.4
2022-10-17T15:52:34.719Z,10.7
2022-10-17T15:54:32.336Z,9.3
2022-10-17T15:56:29.896Z,11.1
2022-10-17T15:58:35.440Z,15.2
2022-10-17T16:00:33.059Z,10.4
2022-10-17T16:02:30.623Z,60.2
2022-10-17T16:04:28.258Z,13.8
2022-10-17T16:06:25.848Z,11.9
2022-10-17T16:08:23.462Z,12.1
2022-10-17T16:10:21.030Z,12.9
2022-10-17T16:12:26.555Z,12.6
2022-10-17T16:14:24.168Z,10.3
2022-10-17T16:19:22.118Z,12.4
2022-10-17T16:21:19.786Z,13
2022-10-17T16:23:17.321Z,14.4
2022-10-17T16:25:22.867Z,19.9
2022-10-17T16:29:18.119Z,14.9
2022-10-17T16:31:15.622Z,16
2022-10-17T16:33:13.235Z,20.1
2022-10-17T16:35:10.847Z,17.1
2022-10-17T16:37:08.454Z,18.2
2022-10-17T16:39:14.075Z,17.9
2022-10-17T16:41:11.603Z,15.9
2022-10-17T16:43:09.206Z,16.1
2022-10-17T16:45:06.811Z,17.5
2022-10-17T16:47:04.393Z,15.7
2022-10-17T16:49:02.035Z,19.3
2022-10-17T16:50:59.634Z,25.5
2022-10-17T16:53:05.197Z,17.5
2022-10-17T16:55:02.847Z,19.4
2022-10-17T16:57:00.419Z,17.1
2022-10-17T16:58:58.034Z,22.6
2022-10-17T17:00:55.739Z,20.2
2022-10-17T17:02:53.245Z,19
2022-10-17T17:04:50.856Z,20.9
2022-10-17T17:06:56.384Z,20.7
2022-10-17T17:08:53.961Z,23.3
2022-10-17T17:10:51.570Z,22.3
2022-10-17T17:11:54.323Z,22.7
2022-10-17T17:13:51.949Z,28.5
2022-10-17T17:15:49.544Z,33.6
2022-10-17T17:17:51.426Z,49.3
2022-10-17T17:23:47.897Z,28.4
2022-10-17T17:25:45.499Z,37.6
2022-10-17T17:27:43.096Z,43.8
2022-10-17T17:29:40.700Z,50
2022-10-17T17:31:38.306Z,26.3
2022-10-17T17:33:43.853Z,22.5
2022-10-17T17:35:41.415Z,144
2022-10-17T17:37:39.025Z,167.9
2022-10-17T17:39:36.635Z,44.9
2022-10-17T17:41:34.245Z,26.7
2022-10-17T17:43:31.846Z,78.6
2022-10-17T17:45:29.458Z,25.6
2022-10-17T17:51:30.203Z,21.8
2022-10-17T17:53:27.858Z,27.1
2022-10-17T17:55:25.452Z,67.7
2022-10-17T17:57:23.039Z,26.5
2022-10-17T17:59:20.645Z,22.8
2022-10-17T18:01:26.250Z,27.9
2022-10-17T18:03:23.763Z,38
2022-10-17T18:05:21.357Z,32.7
2022-10-17T18:06:24.136Z,32
2022-10-17T18:08:21.729Z,29
2022-10-17T18:10:19.330Z,19.9
2022-10-17T18:12:16.911Z,25.6
2022-10-17T18:14:22.470Z,24.5
2022-10-17T18:16:20.108Z,22.5
2022-10-17T18:18:17.654Z,21.3
2022-10-17T18:20:15.280Z,25.3
2022-10-17T18:22:12.892Z,23.7
2022-10-17T18:24:10.458Z,24.9
2022-10-17T18:26:08.074Z,20.9
2022-10-17T18:28:13.605Z,20.5
2022-10-17T18:30:11.203Z,20.8
2022-10-17T18:32:08.841Z,26.5
2022-10-17T18:34:06.418Z,23.9
2022-10-17T18:36:06.959Z,23.6
2022-10-17T18:38:01.610Z,25.5
2022-10-17T18:44:02.334Z,24
2022-10-17T18:45:59.940Z,26.4
2022-10-17T18:47:57.558Z,25.9
2022-10-17T18:49:55.135Z,25.3
2022-10-17T18:51:52.750Z,27.6
2022-10-17T18:53:50.322Z,26.6
2022-10-17T18:55:55.871Z,32.3
2022-10-17T18:57:53.491Z,28.3
2022-10-17T18:59:51.122Z,25.3
2022-10-17T19:02:18.028Z,29.8
2022-10-17T19:04:15.638Z,28
2022-10-17T19:06:13.232Z,29.9
2022-10-17T19:08:18.758Z,30.6
2022-10-17T19:10:16.384Z,30
2022-10-17T19:12:13.986Z,31
2022-10-17T19:14:11.600Z,31.6
2022-10-17T19:16:10.764Z,34
2022-10-17T19:18:08.323Z,34
2022-10-17T19:20:05.931Z,29.5
2022-10-17T19:24:09.059Z,35.8
2022-10-17T19:26:06.660Z,31.5
2022-10-17T19:28:04.272Z,34.1
2022-10-17T19:30:01.879Z,37.4
2022-10-17T19:31:59.469Z,35.2
2022-10-17T19:33:57.061Z,36.2
2022-10-17T19:36:02.595Z,33.5
2022-10-17T19:38:00.217Z,36.4
2022-10-17T19:39:57.809Z,34.2
2022-10-17T19:41:55.401Z,36
2022-10-17T19:43:53.020Z,38.4
2022-10-17T19:45:50.631Z,37.7
2022-10-17T19:47:48.266Z,36.1
2022-10-17T19:49:53.921Z,39.2
2022-10-17T19:51:51.427Z,38.5
2022-10-17T19:53:49.006Z,39.6
2022-10-17T19:54:51.780Z,38.5
2022-10-17T19:56:49.419Z,41.5
2022-10-17T19:58:47.027Z,44.8
2022-10-17T20:00:44.623Z,40.1
2022-10-17T20:02:50.134Z,43.5
2022-10-17T20:04:54.523Z,43.7
2022-10-17T20:10:40.568Z,41.6
2022-10-17T20:12:38.211Z,41.3
2022-10-17T20:14:40.073Z,43.1
2022-10-17T20:16:41.321Z,41.4
2022-10-17T20:18:38.922Z,41.4
2022-10-17T20:20:36.562Z,43.5
2022-10-17T20:24:31.724Z,37.9
2022-10-17T20:26:38.751Z,37.2
2022-10-17T20:28:27.015Z,40
2022-10-17T20:30:32.515Z,36.7
2022-10-17T20:32:30.557Z,38.6
2022-10-17T20:34:27.696Z,36.6
2022-10-17T20:36:25.324Z,36.1
2022-10-17T20:38:22.899Z,37.1
2022-10-17T20:40:34.796Z,37.1
2022-10-17T20:42:18.110Z,38.9
2022-10-17T20:48:18.838Z,39.6
2022-10-17T20:49:21.598Z,39
2022-10-17T20:51:19.222Z,35.3
2022-10-17T20:53:35.309Z,37.3
2022-10-17T20:59:17.572Z,40
2022-10-17T21:01:15.208Z,40.5
2022-10-17T21:03:12.780Z,37.2
2022-10-17T21:05:10.361Z,39.1
2022-10-17T21:07:07.959Z,38.5
2022-10-17T21:09:05.540Z,36.9
2022-10-17T21:11:11.078Z,36
2022-10-17T21:13:08.668Z,34.7
2022-10-17T21:15:06.266Z,36.7
2022-10-17T21:19:01.487Z,35.2
2022-10-17T21:20:59.373Z,34.9
2022-10-17T21:22:56.721Z,34.6
2022-10-17T21:25:02.266Z,35.6
2022-10-17T21:26:59.925Z,36.6
2022-10-17T21:28:57.495Z,35.6
2022-10-17T21:30:55.039Z,38.7
2022-10-17T21:32:52.759Z,36.3
2022-10-17T21:34:50.254Z,36.1
2022-10-17T21:36:47.867Z,35.6
2022-10-17T21:38:53.422Z,36.4
2022-10-17T21:40:52.601Z,36
2022-10-17T21:42:48.611Z,36.3
2022-10-17T21:43:51.356Z,38.8
2022-10-17T21:45:48.946Z,36.6
2022-10-17T21:48:07.858Z,36.9
2022-10-17T21:49:44.152Z,36.9
2022-10-17T21:51:49.708Z,40.6
2022-10-17T21:53:47.333Z,36
2022-10-17T21:55:44.903Z,36.2
2022-10-17T21:57:42.527Z,34.7
2022-10-17T22:01:37.762Z,37.1
2022-10-17T22:05:40.884Z,38.5
2022-10-17T22:07:38.507Z,34.4
2022-10-17T22:09:36.089Z,36.3
2022-10-17T22:11:33.725Z,37.5
2022-10-17T22:13:31.334Z,35
2022-10-17T22:15:28.933Z,35.8
2022-10-17T22:17:26.517Z,35
2022-10-17T22:19:32.058Z,38.3
2022-10-17T22:21:29.658Z,38
2022-10-17T22:23:27.274Z,37
2022-10-17T22:27:22.516Z,32.8
2022-10-17T22:29:20.130Z,39.7
2022-10-17T22:31:17.738Z,33.1
2022-10-17T22:33:23.274Z,38.6
2022-10-17T22:35:21.009Z,41.9
2022-10-17T22:37:18.477Z,38.6
2022-10-17T22:39:45.375Z,37
2022-10-17T22:41:43.017Z,34.7
2022-10-17T22:43:40.628Z,33.8
2022-10-17T22:45:46.187Z,38.1
2022-10-17T22:47:43.767Z,35.4
2022-10-17T22:49:41.407Z,33.1
2022-10-17T22:53:36.627Z,37
2022-10-17T22:55:34.222Z,36.8
2022-10-17T22:57:31.863Z,36.5
2022-10-17T22:59:37.393Z,35.1
2022-10-17T23:01:35.060Z,32.5
2022-10-17T23:03:32.596Z,35.6
2022-10-17T23:05:30.210Z,34.5
2022-10-17T23:07:27.826Z,35.4
2022-10-17T23:11:23.031Z,35.5
2022-10-17T23:13:28.548Z,38.6
2022-10-17T23:15:26.138Z,38.5
2022-10-17T23:17:23.778Z,32.2
2022-10-17T23:19:21.344Z,35.5
2022-10-17T23:21:18.968Z,34.2
2022-10-17T23:25:14.175Z,35.8
2022-10-17T23:32:17.704Z,58.7
2022-10-17T23:34:15.296Z,41
2022-10-17T23:36:12.881Z,37.1
2022-10-17T23:38:10.509Z,36
2022-10-17T23:40:16.024Z,40.2
2022-10-17T23:42:13.650Z,37.2
2022-10-17T23:44:11.255Z,36.8
2022-10-17T23:46:08.900Z,41.5
2022-10-17T23:48:06.495Z,40.2
2022-10-17T23:50:04.120Z,40.1
2022-10-17T23:52:01.722Z,41.2
2022-10-17T23:54:07.260Z,41.4
2022-10-17T23:56:04.867Z,39.2
2022-10-17T23:58:02.461Z,39.5
